Warrensburg, Missouri
Current Conditions -  °F | °C
As of 2:55 AM on Sunday 23 Nov 2014 (Local Time) from KRCM Reporting Station
Drizzle Drizzle  
Wind Chill: 52°   Ceiling: 10000
Heat Index: 52°   Visibility: 10mi
Dew Point: 50°   Wind: 7mph
Humidity: 94%   Direction: 150°SSE
Pressure: 29.64"   Gusts: NA
Location:  38.77°N, 93.74°W
Report Text: KRCM 230855Z AUTO 15006KT 10SM -DZ SCT015 SCT036 OVC100 11/10 A2964 RMK AO2
Loading
Personal Weather Stations






























Interactive Weather Map New forecast layout! Learn more

10-Day Weather Forecast

Advertisements
Track Severe Weather on mobile